Relevés horaires Semmerzake (Belgique)


Relevés horaires à Semmerzake - Vendredi 16 Juill. 2021
Heure UTC1 Température [°C] Vent [km/h] Hum. [%] Pres.4 [hPa] Visi. [Km] Nébu. [octa] Préc.5 [mm] Cond.
2m. Res. Ros. Dir.2 Vit. Moy. Raf.3
23:00 13.9 13.9 12.6 NNO 1.9 -- 5.6 92 1026.2(0.3/3h) 9 -- -- --
22:00 14.7 14.7 12.9 NNO 3.7 -- 7.4 89 1026.2(0.7/3h) 10 -- -- --
21:00 15.8 15.8 13.0 N 3.7 -- 13.0 83 1026(1.0/3h) 12 -- -- --
20:00 16.1 16.1 12.8 N 7.4 -- 11.1 81 1025.9(1.0/3h) 13 -- -- --
19:00 16.7 16.7 12.7 N 5.6 -- 13.0 77 1025.4(0.6/3h) 15 -- -- --
18:00 18.0 18.0 12.7 N 7.4 -- 16.7 71 1025(0.3/3h) 17 -- -- --
17:00 18.5 18.5 12.5 N 9.3 -- 16.7 68 1024.7(0.0/3h) 18 -- -- --
16:00 18.6 18.6 12.1 N 9.3 -- 16.7 66 1024.7(0.1/3h) 18 -- -- --
15:00 19.3 19.3 12.2 NNO 9.3 -- 16.7 63 1024.7(-0.1/3h) 14 -- -- --
14:00 19.2 19.2 12.2 N 9.3 -- 14.8 64 1024.7(0.1/3h) 19 -- -- --
13:00 20.2 20.2 12.4 N 7.4 -- 14.8 61 1024.5(0.1/3h) 16 -- -- --
12:00 18.9 18.9 11.6 N 9.3 -- 16.7 63 1024.7(0.7/3h) 18 -- -- --
11:00 18.6 18.6 12.0 N 9.3 -- 16.7 65 1024.5(0.8/3h) 17 -- -- --
10:00 16.8 16.8 11.7 N 9.3 -- 14.8 72 1024.4(1.1/3h) 15 -- -- --
09:00 16.3 16.3 11.6 N 7.4 -- 13.0 74 1024(1.0/3h) 18 -- -- --
08:00 16.1 16.1 11.8 N 7.4 -- 9.3 76 1023.7(0.9/3h) 18 -- -- --
07:00 15.5 15.5 11.7 NNO 5.6 -- 9.3 78 1023.2(1.0/3h) 17 -- -- --
06:00 15.1 15.1 11.3 NNO 3.7 -- 14.8 78 1023(0.8/3h) 19 -- -- --
05:00 15.1 15.1 11.6 N 5.6 -- 11.1 80 1022.7(0.5/3h) 15 -- -- --
04:00 15.1 15.1 12.2 N 5.6 -- 11.1 83 1022.2(0.2/3h) 16 -- -- --
03:00 15.3 15.3 12.6 NNO 5.6 -- 14.8 84 1022.2(0.4/3h) 14 -- -- --
02:00 15.6 15.6 13.7 N 7.4 -- 13.0 88 1022.2(0.5/3h) 12 -- -- --
01:00 16.2 16.2 13.9 N 5.6 -- 14.8 86 1022(0.5/3h) 14 -- -- --
00:00 16.6 16.6 14.0 N 5.6 -- 18.5 85 1021.7(0.6/3h) 14 -- -- --

1 Coordinated Universal Time. Actuellement il est 22:00 locale et 20:00 UTC.

2 Le vent souffle depuis la direction indiquée vers la direction oposée.

3 Les rafales max. sont disponible 40 min après l'heure du relevé.

4 Pour les stations d'altitude (plus de 600m) le géopotentiel du niveau le plus proche de la pression obligatoire est indiqué.

5 Les stations disposant d'un diffuseur peuvent indiquer "trace". Cela signifie que des précipitations ont touchés le sol mais que la quantité est inférieure à 0.1 mm.

Récapitulatif de la journée
Température [°C] Vent [km/h] Ensoleillement4 [h] Precipitations totale5 [mm] Pression [Hpa]
Min1 Max.2 Moy.3 Max. Min Max.
15.0 21.1 0 18.5 0 h 0 min 0 1021.7 1026.2

1 Température minimale relevée entre 18:00 UTC la veille et 18:00 UTC le jour donné.

2 Température maximale relevée entre 06:00 UTC le jour donné et 06:00 UTC le lendemain.

3 Vent moyen de la journée basé sur les relevés horaires.

4 Ensoleillement en heures relevé entre 06:00 UTC la veille et 06:00 UTC le jour donné.

5 Précipitations totales tombées entre 06:00 UTC la jour donné et 06:00 UTC le lendemain.

Graphiques horaires